Airfield :
LOGIN :

Register | Disclaimer

   EN    FR    IT 

 










Legend :    VFR   Marginal VFR   IFR   Intensive IFR   Very Intensive IFR
Visi :
Ceiling :
>= 8 km
>= 3000ft
5 to 8 km
1000 to 3000 ft
1500m to 5 km
500 to 1000 ft
800 to 1500m
200 to 500 ft
< 800m
< 200 ft
Symbols :   Thunderstorms  Fog  Heavy snow  Heavy precipitations  Wind > 20 kt
SIGMETs :     Misc.  Thunderstorms  Icing  Turbulence  Mountain Waves  Volcanic Ashes






- Airport Elevation : 204 ft
- IATA code : AGF


LFBA - Agen

CURRENT METAR :
  • 070800Z AUTO 31005KT 270V340 CAVOK 23/13 Q1026 NOSIG

EXPIRED METARs :
  • 070730Z AUTO 28003KT 230V320 CAVOK 22/13 Q1026 NOSIG
  • 070700Z AUTO 27005KT 240V300 CAVOK 20/13 Q1026 NOSIG
  • 070630Z AUTO 28005KT 240V320 CAVOK 19/14 Q1026 NOSIG
  • 070600Z AUTO 27003KT 230V300 CAVOK 18/14 Q1026 NOSIG
  • 070530Z AUTO 25004KT CAVOK 17/14 Q1026

TAF TAF LFBA
Valid from the 07 at 06:00 until the 07 at 15:00 UTC


070500Z 0706/0715 VRB03KT CAVOK
BECMG 0707/0709 33010KT



MET'MAP, your aeronautical weather chart ! - Copyright ORBIFLY December 2007 - Disclaimer

ORBIFLY MET'MAP TEAM :

Programming & Development : Alexandra Zaïnal
Original concept : Baudouin d'Aumeries
Technical & hardware support : Manuel Goepfert
Assistance : Marc-Olivier Méhu




SOURCES & CREDITS :

   NOAA